createdAt,value
2022-10-12T00:00:29.194Z,100644.63
2022-10-12T00:03:17.710Z,100638.69
2022-10-12T00:06:08.160Z,100634.13
2022-10-12T00:08:56.519Z,100640.97
2022-10-12T00:11:44.875Z,100650.41
2022-10-12T00:14:36.710Z,100651.31
2022-10-12T00:17:25.106Z,100651.50
2022-10-12T00:20:13.934Z,100655.44
2022-10-12T00:23:02.335Z,100653.56
2022-10-12T00:25:51.109Z,100659.13
2022-10-12T00:28:39.598Z,100662.06
2022-10-12T00:31:29.683Z,100659.72
2022-10-12T00:34:18.065Z,100659.91
2022-10-12T00:37:06.400Z,100664.38
2022-10-12T00:39:54.739Z,100662.72
2022-10-12T00:42:43.036Z,100665.53
2022-10-12T00:45:31.379Z,100668.34
2022-10-12T00:48:21.128Z,100658.31
2022-10-12T00:51:09.524Z,100661.81
2022-10-12T00:53:59.915Z,100662.03
2022-10-12T00:56:48.434Z,100667.38
2022-10-12T00:59:40.261Z,100664.13
2022-10-12T01:02:30.424Z,100660.00
2022-10-12T01:05:20.328Z,100656.63
2022-10-12T01:08:08.715Z,100657.50
2022-10-12T01:10:57.540Z,100662.03
2022-10-12T01:13:45.852Z,100657.94
2022-10-12T01:16:37.383Z,100658.91
2022-10-12T01:19:43.647Z,100666.75
2022-10-12T01:22:35.116Z,100666.03
2022-10-12T01:25:31.598Z,100658.38
2022-10-12T01:28:21.948Z,100658.78
2022-10-12T01:31:15.593Z,100666.06
2022-10-12T01:34:06.434Z,100672.25
2022-10-12T01:37:01.526Z,100657.72
2022-10-12T01:39:53.098Z,100660.28
2022-10-12T01:42:41.921Z,100650.84
2022-10-12T01:45:30.352Z,100655.94
2022-10-12T01:48:20.045Z,100655.94
2022-10-12T01:51:08.410Z,100655.88
2022-10-12T01:54:01.654Z,100657.59
2022-10-12T01:56:55.897Z,100642.59
2022-10-12T01:59:55.990Z,100652.41
2022-10-12T02:02:52.347Z,100648.34
2022-10-12T02:05:45.713Z,100646.56
2022-10-12T02:08:36.767Z,100649.91
2022-10-12T02:11:26.441Z,100652.34
2022-10-12T02:14:17.199Z,100647.16
2022-10-12T02:17:06.490Z,100646.38
2022-10-12T02:19:56.789Z,100637.94
2022-10-12T02:22:48.163Z,100628.56
2022-10-12T02:25:36.515Z,100632.69
2022-10-12T02:28:25.948Z,100625.88
2022-10-12T02:31:19.634Z,100622.50
2022-10-12T02:34:11.649Z,100626.03
2022-10-12T02:37:07.356Z,100623.72
2022-10-12T02:40:00.892Z,100624.78
2022-10-12T02:43:11.880Z,100624.94
2022-10-12T02:46:00.303Z,100632.00
2022-10-12T02:48:49.291Z,100626.31
2022-10-12T02:51:37.686Z,100627.34
2022-10-12T02:54:26.149Z,100619.69
2022-10-12T02:57:15.847Z,100613.63
2022-10-12T03:00:04.803Z,100616.13
2022-10-12T03:02:53.127Z,100612.81
2022-10-12T03:05:41.515Z,100613.78
2022-10-12T03:08:29.894Z,100616.38
2022-10-12T03:11:18.255Z,100618.91
2022-10-12T03:14:07.932Z,100618.81
2022-10-12T03:16:56.293Z,100623.91
2022-10-12T03:19:44.630Z,100624.72
2022-10-12T03:22:33.015Z,100619.56
2022-10-12T03:25:21.362Z,100617.00
2022-10-12T03:28:09.734Z,100617.00
2022-10-12T03:30:59.571Z,100613.63
2022-10-12T03:33:47.923Z,100610.25
2022-10-12T03:36:36.319Z,100613.75
2022-10-12T03:39:24.685Z,100611.19
2022-10-12T03:42:13.914Z,100620.59
2022-10-12T03:45:02.275Z,100618.88
2022-10-12T03:47:52.067Z,100615.44
2022-10-12T03:50:40.448Z,100620.59
2022-10-12T03:53:28.910Z,100621.63
2022-10-12T03:56:17.294Z,100614.97
2022-10-12T03:59:05.741Z,100604.75
2022-10-12T04:01:54.213Z,100615.88
2022-10-12T04:04:44.210Z,100612.50
2022-10-12T04:07:32.595Z,100616.78
2022-10-12T04:10:21.015Z,100624.50
2022-10-12T04:13:09.424Z,100623.63
2022-10-12T04:16:02.747Z,100627.06
2022-10-12T04:18:51.118Z,100625.38
2022-10-12T04:21:40.998Z,100624.63
2022-10-12T04:24:29.396Z,100628.06
2022-10-12T04:27:17.794Z,100623.72
2022-10-12T04:30:07.556Z,100633.16
2022-10-12T04:32:56.477Z,100631.41
2022-10-12T04:35:45.159Z,100630.50
2022-10-12T04:38:34.901Z,100638.22
2022-10-12T04:41:23.442Z,100634.84
2022-10-12T04:44:11.873Z,100629.75
2022-10-12T04:47:00.401Z,100633.16
2022-10-12T04:49:48.813Z,100628.78
2022-10-12T04:52:37.173Z,100626.97
2022-10-12T04:55:27.382Z,100627.75
2022-10-12T04:58:15.907Z,100630.31
2022-10-12T05:01:04.335Z,100622.66
2022-10-12T05:03:52.675Z,100631.13
2022-10-12T05:06:41.074Z,100628.53
2022-10-12T05:09:29.432Z,100626.88
2022-10-12T05:12:19.189Z,100630.31
2022-10-12T05:15:09.220Z,100628.59
2022-10-12T05:17:57.744Z,100637.09
2022-10-12T05:20:46.093Z,100634.59
2022-10-12T05:23:34.462Z,100629.56
2022-10-12T05:26:22.802Z,100622.78
2022-10-12T05:29:12.572Z,100624.56
2022-10-12T05:32:01.234Z,100628.06
2022-10-12T05:34:49.585Z,100624.72
2022-10-12T05:37:38.173Z,100624.75
2022-10-12T05:40:26.653Z,100628.19
2022-10-12T05:43:15.029Z,100632.53
2022-10-12T05:46:04.756Z,100636.09
2022-10-12T05:48:53.085Z,100629.25
2022-10-12T05:51:41.611Z,100637.91
2022-10-12T05:54:29.918Z,100645.66
2022-10-12T05:57:19.321Z,100649.09
2022-10-12T06:00:09.458Z,100649.09
2022-10-12T06:03:02.121Z,100645.66
2022-10-12T06:05:30.123Z,100649.06
2022-10-12T06:07:58.178Z,100652.34
2022-10-12T06:10:29.828Z,100655.66
2022-10-12T06:12:58.124Z,100656.47
2022-10-12T06:15:26.215Z,100650.44
2022-10-12T06:17:54.240Z,100656.31
2022-10-12T06:20:23.651Z,100658.81
2022-10-12T06:22:51.704Z,100655.38
2022-10-12T06:25:19.737Z,100652.75
2022-10-12T06:27:47.786Z,100649.22
2022-10-12T06:30:15.972Z,100641.47
2022-10-12T06:32:44.118Z,100649.09
2022-10-12T06:35:12.268Z,100653.41
2022-10-12T06:37:50.284Z,100649.25
2022-10-12T06:40:19.239Z,100657.94
2022-10-12T06:42:47.278Z,100660.44
2022-10-12T06:45:15.713Z,100667.25
2022-10-12T06:47:43.877Z,100669.81
2022-10-12T06:50:12.091Z,100663.00
2022-10-12T06:52:43.480Z,100663.09
2022-10-12T06:55:12.478Z,100662.09
2022-10-12T06:57:40.575Z,100665.38
2022-10-12T07:00:10.131Z,100656.72
2022-10-12T07:02:38.379Z,100655.75
2022-10-12T07:05:08.477Z,100658.13
2022-10-12T07:07:37.482Z,100661.22
2022-10-12T07:10:08.601Z,100661.00
2022-10-12T07:12:37.272Z,100652.88
2022-10-12T07:15:07.150Z,100662.78
2022-10-12T07:17:35.516Z,100664.25
2022-10-12T07:20:04.186Z,100656.22
2022-10-12T07:22:32.276Z,100655.50
2022-10-12T07:25:00.481Z,100662.72
2022-10-12T07:27:29.915Z,100664.59
2022-10-12T07:29:58.220Z,100658.00
2022-10-12T07:32:26.385Z,100662.31
2022-10-12T07:34:54.481Z,100663.94
2022-10-12T07:37:22.604Z,100665.59
2022-10-12T07:39:50.728Z,100669.78
2022-10-12T07:42:19.706Z,100668.81
2022-10-12T07:44:49.423Z,100660.97
2022-10-12T07:47:17.790Z,100661.31
2022-10-12T07:49:45.928Z,100662.66
2022-10-12T07:52:14.126Z,100662.44
2022-10-12T07:54:42.321Z,100651.94
2022-10-12T07:57:10.453Z,100647.75
2022-10-12T07:59:38.682Z,100660.94
2022-10-12T08:02:08.150Z,100657.22
2022-10-12T08:04:36.294Z,100659.50
2022-10-12T08:07:04.523Z,100654.91
2022-10-12T08:09:32.670Z,100653.31
2022-10-12T08:12:00.731Z,100654.16
2022-10-12T08:14:28.923Z,100657.84
2022-10-12T08:16:56.976Z,100654.19
2022-10-12T08:19:26.489Z,100648.81
2022-10-12T08:21:54.551Z,100652.81
2022-10-12T08:24:22.825Z,100639.34
2022-10-12T08:26:50.930Z,100638.19
2022-10-12T08:29:19.035Z,100639.25
2022-10-12T08:31:49.394Z,100639.72
2022-10-12T08:34:17.705Z,100639.94
2022-10-12T08:36:47.799Z,100636.63
2022-10-12T08:39:15.962Z,100633.25
2022-10-12T08:41:51.434Z,100627.66
2022-10-12T08:44:51.805Z,100630.63
2022-10-12T08:47:22.688Z,100627.97
2022-10-12T08:49:50.779Z,100629.78
2022-10-12T08:52:31.472Z,100640.13
2022-10-12T08:55:02.137Z,100646.06
2022-10-12T08:57:30.211Z,100640.41
2022-10-12T08:59:58.647Z,100645.84
2022-10-12T09:02:39.608Z,100648.03
2022-10-12T09:05:09.637Z,100647.13
2022-10-12T09:07:43.223Z,100642.22
2022-10-12T09:10:26.366Z,100651.13
2022-10-12T09:13:00.463Z,100658.06
2022-10-12T09:15:30.725Z,100652.06
2022-10-12T09:17:59.777Z,100654.50
2022-10-12T09:20:29.850Z,100649.66
2022-10-12T09:23:02.252Z,100646.75
2022-10-12T09:25:30.390Z,100648.13
2022-10-12T09:28:09.042Z,100667.94
2022-10-12T09:30:38.477Z,100659.22
2022-10-12T09:33:15.838Z,100655.66
2022-10-12T09:35:44.011Z,100648.94
2022-10-12T09:38:13.424Z,100658.34
2022-10-12T09:40:41.521Z,100647.94
2022-10-12T09:43:09.709Z,100650.53
2022-10-12T09:45:37.763Z,100653.72
2022-10-12T09:48:14.742Z,100646.03
2022-10-12T09:50:45.433Z,100646.94
2022-10-12T09:53:28.035Z,100646.22
2022-10-12T09:55:59.713Z,100649.69
2022-10-12T09:58:28.636Z,100637.13
2022-10-12T10:01:16.364Z,100624.44
2022-10-12T10:03:44.579Z,100623.31
2022-10-12T10:06:15.199Z,100624.41
2022-10-12T10:08:46.274Z,100622.16
2022-10-12T10:11:19.876Z,100625.81
2022-10-12T10:13:50.588Z,100626.78
2022-10-12T10:16:18.617Z,100634.53
2022-10-12T10:18:49.105Z,100628.59
2022-10-12T10:21:25.124Z,100642.44
2022-10-12T10:23:56.463Z,100633.84
2022-10-12T10:26:25.665Z,100640.75
2022-10-12T10:28:57.865Z,100631.25
2022-10-12T10:31:28.036Z,100633.56
2022-10-12T10:34:21.366Z,100635.09
2022-10-12T10:36:51.427Z,100634.59
2022-10-12T10:39:24.137Z,100639.31
2022-10-12T10:41:53.331Z,100634.94
2022-10-12T10:44:32.148Z,100637.63
2022-10-12T10:47:02.147Z,100634.44
2022-10-12T10:49:38.397Z,100631.94
2022-10-12T10:52:07.176Z,100632.66
2022-10-12T10:54:38.561Z,100629.75
2022-10-12T10:57:12.127Z,100625.19
2022-10-12T10:59:52.753Z,100619.97
2022-10-12T11:02:30.876Z,100611.00
2022-10-12T11:05:06.844Z,100615.56
2022-10-12T11:07:38.541Z,100616.50
2022-10-12T11:10:18.396Z,100612.06
2022-10-12T11:12:49.608Z,100616.22
2022-10-12T11:15:21.841Z,100613.44
2022-10-12T11:17:51.285Z,100612.59
2022-10-12T11:20:38.155Z,100608.22
2022-10-12T11:23:15.053Z,100612.75
2022-10-12T11:25:49.275Z,100600.41
2022-10-12T11:28:17.978Z,100597.50
2022-10-12T11:30:49.328Z,100603.50
2022-10-12T11:33:22.336Z,100603.59
2022-10-12T11:35:50.577Z,100596.59
2022-10-12T11:38:22.366Z,100586.19
2022-10-12T11:41:33.892Z,100588.38
2022-10-12T11:43:47.292Z,100582.91
2022-10-12T11:46:17.367Z,100576.38
2022-10-12T11:48:48.948Z,100565.28
2022-10-12T11:51:16.955Z,100577.47
2022-10-12T11:53:52.374Z,100563.41
2022-10-12T11:56:24.261Z,100574.91
2022-10-12T11:59:01.090Z,100560.31
2022-10-12T12:01:50.814Z,100560.94
2022-10-12T12:04:43.320Z,100555.31
2022-10-12T12:07:44.984Z,100563.03
2022-10-12T12:10:54.078Z,100551.25
2022-10-12T12:13:27.219Z,100550.94
2022-10-12T12:16:34.608Z,100540.31
2022-10-12T12:19:37.944Z,100543.63
2022-10-12T12:22:34.761Z,100539.16
2022-10-12T12:25:24.245Z,100525.25
2022-10-12T12:27:53.657Z,100520.00
2022-10-12T12:30:33.427Z,100517.16
2022-10-12T12:33:03.196Z,100515.56
2022-10-12T12:35:36.282Z,100508.44
2022-10-12T12:38:21.457Z,100508.56
2022-10-12T12:41:15.108Z,100500.97
2022-10-12T12:43:58.157Z,100493.22
2022-10-12T12:47:39.946Z,100493.97
2022-10-12T12:49:57.211Z,100496.56
2022-10-12T12:52:28.779Z,100486.31
2022-10-12T12:55:30.131Z,100483.19
2022-10-12T12:58:25.502Z,100479.50
2022-10-12T13:01:05.077Z,100490.13
2022-10-12T13:04:13.456Z,100484.00
2022-10-12T13:07:43.889Z,100482.34
2022-10-12T13:10:24.503Z,100484.25
2022-10-12T13:13:20.328Z,100477.28
2022-10-12T13:15:59.904Z,100482.31
2022-10-12T13:18:48.833Z,100477.41
2022-10-12T13:21:19.881Z,100487.06
2022-10-12T13:23:50.284Z,100486.59
2022-10-12T13:26:22.642Z,100477.28
2022-10-12T13:28:51.031Z,100488.03
2022-10-12T13:31:21.781Z,100487.91
2022-10-12T13:33:59.345Z,100487.09
2022-10-12T13:36:29.295Z,100482.91
2022-10-12T13:38:58.085Z,100487.09
2022-10-12T13:41:26.584Z,100478.75
2022-10-12T13:43:55.554Z,100484.09
2022-10-12T13:46:38.771Z,100480.06
2022-10-12T13:49:17.600Z,100482.91
2022-10-12T13:51:47.397Z,100480.66
2022-10-12T13:54:21.143Z,100480.88
2022-10-12T13:56:50.206Z,100482.31
2022-10-12T13:59:20.140Z,100473.94
2022-10-12T14:01:54.393Z,100481.34
2022-10-12T14:04:24.173Z,100466.75
2022-10-12T14:07:00.027Z,100467.41
2022-10-12T14:09:29.117Z,100466.69
2022-10-12T14:11:57.132Z,100468.34
2022-10-12T14:14:32.786Z,100461.44
2022-10-12T14:17:00.840Z,100467.56
2022-10-12T14:19:44.922Z,100473.94
2022-10-12T14:22:13.554Z,100474.31
2022-10-12T14:24:41.690Z,100475.28
2022-10-12T14:27:09.823Z,100469.41
2022-10-12T14:29:42.541Z,100467.97
2022-10-12T14:32:42.518Z,100470.28
2022-10-12T14:35:24.763Z,100473.50
2022-10-12T14:37:53.681Z,100457.72
2022-10-12T14:40:32.487Z,100462.97
2022-10-12T14:43:03.479Z,100462.63
2022-10-12T14:45:31.783Z,100463.25
2022-10-12T14:48:00.067Z,100455.38
2022-10-12T14:50:31.395Z,100455.38
2022-10-12T14:53:01.663Z,100448.44
2022-10-12T14:55:31.867Z,100445.69
2022-10-12T14:58:00.030Z,100447.13
2022-10-12T15:00:29.849Z,100443.19
2022-10-12T15:02:58.131Z,100435.06
2022-10-12T15:05:28.826Z,100435.91
2022-10-12T15:07:58.188Z,100440.19
2022-10-12T15:10:26.523Z,100437.22
2022-10-12T16:39:10.663Z,100440.13
2022-10-12T16:41:38.676Z,100440.75
2022-10-12T16:44:06.757Z,100440.31
2022-10-12T16:46:36.814Z,100431.34
2022-10-12T16:49:04.955Z,100438.00
2022-10-12T16:51:33.053Z,100439.81
2022-10-12T16:54:01.185Z,100444.28
2022-10-12T16:56:30.635Z,100451.34
2022-10-12T16:58:59.561Z,100439.59
2022-10-12T17:01:27.635Z,100438.47
2022-10-12T17:03:55.779Z,100441.19
2022-10-12T17:06:23.935Z,100436.81
2022-10-12T17:08:51.974Z,100434.16
2022-10-12T17:11:21.206Z,100442.69
2022-10-12T17:13:50.573Z,100444.38
2022-10-12T17:16:36.585Z,100449.00
2022-10-12T17:19:04.680Z,100442.59
2022-10-12T17:21:32.786Z,100446.28
2022-10-12T17:24:02.719Z,100440.69
2022-10-12T17:26:30.883Z,100434.97
2022-10-12T17:29:00.402Z,100428.50
2022-10-12T17:31:28.650Z,100443.50
2022-10-12T17:33:57.579Z,100454.13
2022-10-12T17:36:28.237Z,100449.34
2022-10-12T17:38:57.213Z,100441.84
2022-10-12T17:41:25.336Z,100447.97
2022-10-12T17:43:53.416Z,100446.47
2022-10-12T17:46:23.057Z,100455.31
2022-10-12T17:48:51.680Z,100453.75
2022-10-12T17:51:19.815Z,100453.97
2022-10-12T17:53:47.892Z,100459.47
2022-10-12T17:56:17.403Z,100455.28
2022-10-12T17:58:45.463Z,100456.44
2022-10-12T18:01:15.519Z,100446.50
2022-10-12T18:03:47.214Z,100449.53
2022-10-12T18:06:17.183Z,100448.00
2022-10-12T18:08:45.420Z,100455.19
2022-10-12T18:11:13.595Z,100457.38
2022-10-12T18:13:41.784Z,100456.78
2022-10-12T18:16:10.470Z,100455.41
2022-10-12T18:18:38.621Z,100446.38
2022-10-12T18:21:08.690Z,100455.78
2022-10-12T18:23:36.883Z,100452.56
2022-10-12T18:26:05.324Z,100451.13
2022-10-12T18:28:33.474Z,100458.25
2022-10-12T18:31:02.778Z,100454.22
2022-10-12T18:33:30.922Z,100467.41
2022-10-12T18:36:04.156Z,100468.41
2022-10-12T18:38:33.845Z,100462.50
2022-10-12T18:41:04.855Z,100480.59
2022-10-12T18:43:32.993Z,100473.66
2022-10-12T18:46:01.049Z,100470.22
2022-10-12T18:48:29.102Z,100471.94
2022-10-12T18:50:57.528Z,100469.34
2022-10-12T18:53:28.069Z,100469.34
2022-10-12T18:55:57.517Z,100471.13
2022-10-12T18:58:25.663Z,100460.81
2022-10-12T19:00:55.061Z,100455.78
2022-10-12T19:03:23.232Z,100457.47
2022-10-12T19:05:51.332Z,100446.94
2022-10-12T19:08:19.522Z,100455.63
2022-10-12T19:10:47.527Z,100449.75
2022-10-12T19:13:16.914Z,100447.22
2022-10-12T19:15:45.198Z,100452.41
2022-10-12T19:18:13.245Z,100455.00
2022-10-12T19:20:41.330Z,100460.97
2022-10-12T19:23:09.531Z,100454.88
2022-10-12T19:25:38.877Z,100454.13
2022-10-12T19:28:06.943Z,100451.59
2022-10-12T19:30:39.666Z,100444.63
2022-10-12T19:33:07.752Z,100448.00
2022-10-12T19:35:38.378Z,100433.38
2022-10-12T19:38:06.524Z,100430.84
2022-10-12T19:40:37.493Z,100436.94
2022-10-12T19:43:06.792Z,100443.88
2022-10-12T19:45:40.657Z,100453.34
2022-10-12T19:48:08.982Z,100458.44
2022-10-12T19:50:37.224Z,100453.25
2022-10-12T19:53:05.423Z,100452.50
2022-10-12T19:55:34.069Z,100456.16
2022-10-12T19:58:02.369Z,100451.19
2022-10-12T20:00:30.527Z,100457.50
2022-10-12T20:03:18.583Z,100455.28
2022-10-12T20:06:09.207Z,100454.94
2022-10-12T20:08:59.023Z,100450.25
2022-10-12T20:11:47.375Z,100462.63
2022-10-12T20:14:35.747Z,100462.91
2022-10-12T20:17:24.072Z,100460.53
2022-10-12T20:20:14.125Z,100466.75
2022-10-12T20:23:02.498Z,100468.66
2022-10-12T20:25:52.156Z,100453.44
2022-10-12T20:28:40.549Z,100462.13
2022-10-12T20:31:29.361Z,100456.25
2022-10-12T20:34:17.733Z,100449.56
2022-10-12T20:37:07.474Z,100448.06
2022-10-12T20:39:55.844Z,100445.63
2022-10-12T20:42:44.249Z,100452.53
2022-10-12T20:45:32.692Z,100458.44
2022-10-12T20:48:21.161Z,100457.38
2022-10-12T20:51:10.157Z,100452.88
2022-10-12T20:54:00.986Z,100455.19
2022-10-12T20:56:51.876Z,100443.66
2022-10-12T20:59:42.043Z,100439.09
2022-10-12T21:02:30.429Z,100436.38
2022-10-12T21:05:18.875Z,100444.78
2022-10-12T21:08:07.207Z,100439.44
2022-10-12T21:10:56.954Z,100441.97
2022-10-12T21:13:46.007Z,100449.69
2022-10-12T21:16:34.388Z,100440.16
2022-10-12T21:19:23.010Z,100447.00
2022-10-12T21:22:11.440Z,100453.88
2022-10-12T21:24:59.812Z,100449.41
2022-10-12T21:27:49.544Z,100442.31
2022-10-12T21:30:38.551Z,100440.56
2022-10-12T21:33:28.287Z,100443.22
2022-10-12T21:36:18.328Z,100435.59
2022-10-12T21:39:10.208Z,100443.44
2022-10-12T21:41:58.677Z,100433.97
2022-10-12T21:44:48.441Z,100436.63
2022-10-12T21:47:36.861Z,100433.16
2022-10-12T21:50:25.240Z,100433.97
2022-10-12T21:53:14.263Z,100435.53
2022-10-12T21:56:07.497Z,100437.19
2022-10-12T21:58:57.930Z,100441.53
2022-10-12T22:01:47.673Z,100430.34
2022-10-12T22:04:36.091Z,100434.75
2022-10-12T22:07:24.557Z,100433.22
2022-10-12T22:10:13.005Z,100438.59
2022-10-12T22:13:01.346Z,100445.53
2022-10-12T22:16:03.183Z,100444.63
2022-10-12T22:18:52.916Z,100442.81
2022-10-12T22:21:43.803Z,100449.69
2022-10-12T22:24:32.368Z,100453.03
2022-10-12T22:27:20.808Z,100452.00
2022-10-12T22:30:10.040Z,100449.25
2022-10-12T22:32:58.443Z,100455.28
2022-10-12T22:35:55.415Z,100460.41
2022-10-12T22:38:43.798Z,100456.03
2022-10-12T22:41:35.128Z,100455.97
2022-10-12T22:44:23.475Z,100450.03
2022-10-12T22:47:15.625Z,100450.09
2022-10-12T22:50:04.013Z,100450.16
2022-10-12T22:52:53.697Z,100445.88
2022-10-12T22:55:42.054Z,100444.97
2022-10-12T22:58:30.443Z,100444.91
2022-10-12T23:01:18.819Z,100454.28
2022-10-12T23:04:07.997Z,100455.97
2022-10-12T23:06:56.373Z,100450.72
2022-10-12T23:09:49.216Z,100455.97
2022-10-12T23:12:37.595Z,100462.28
2022-10-12T23:15:25.939Z,100454.88
2022-10-12T23:18:14.279Z,100446.44
2022-10-12T23:21:05.352Z,100453.59
2022-10-12T23:23:53.701Z,100453.59
2022-10-12T23:26:43.404Z,100457.22
2022-10-12T23:29:31.786Z,100462.81
2022-10-12T23:32:20.453Z,100452.72
2022-10-12T23:35:09.706Z,100454.81
2022-10-12T23:37:58.036Z,100449.88
2022-10-12T23:40:46.997Z,100457.91
2022-10-12T23:43:36.747Z,100453.97
2022-10-12T23:46:25.167Z,100457.75
2022-10-12T23:49:15.394Z,100458.78
2022-10-12T23:52:03.755Z,100447.00
2022-10-12T23:54:52.098Z,100447.25
2022-10-12T23:57:47.049Z,100447.47
